Wingate, Indiana
Current Conditions -  °F | °C
As of 4:54 PM on Friday 28 Nov 2014 (Local Time) from KLAF Reporting Station
Clear Clear  
Wind Chill: 25°   Ceiling: Unl
Heat Index: 33°   Visibility: 10mi
Dew Point: 23°   Wind: 9mph
Humidity: 66%   Direction: 170°S
Pressure: 30.04"   Gusts: NA
Location:  40.17°N, 87.07°W
Report Text: KLAF 282154Z 17008KT 10SM CLR 01/M05 A3004 RMK AO2 SLP180 T00061050
Loading
Personal Weather Stations






























Interactive Weather Map New forecast layout! Learn more

10-Day Weather Forecast

Advertisements
Track Severe Weather on mobile